createdAt,value
2017-11-16T00:01:37.423Z,19.23
2017-11-16T00:04:05.291Z,18.60
2017-11-16T00:06:33.158Z,18.58
2017-11-16T00:09:01.026Z,21.85
2017-11-16T00:11:28.892Z,20.67
2017-11-16T00:13:56.759Z,17.98
2017-11-16T00:16:24.629Z,18.33
2017-11-16T00:18:52.495Z,11.88
2017-11-16T00:21:20.363Z,13.88
2017-11-16T00:23:48.233Z,19.12
2017-11-16T00:26:16.098Z,17.50
2017-11-16T00:28:43.963Z,19.87
2017-11-16T00:31:11.831Z,25.75
2017-11-16T00:33:39.698Z,15.52
2017-11-16T00:36:07.565Z,16.48
2017-11-16T00:38:35.432Z,17.02
2017-11-16T00:41:03.300Z,16.37
2017-11-16T00:43:31.167Z,16.55
2017-11-16T00:45:59.039Z,14.98
2017-11-16T00:48:26.902Z,19.20
2017-11-16T00:50:54.769Z,13.27
2017-11-16T00:53:22.637Z,15.23
2017-11-16T00:55:50.503Z,17.02
2017-11-16T00:58:18.371Z,13.80
2017-11-16T01:00:46.241Z,14.80
2017-11-16T01:03:14.106Z,15.95
2017-11-16T01:05:41.973Z,16.37
2017-11-16T01:08:09.840Z,16.52
2017-11-16T01:10:37.710Z,17.90
2017-11-16T01:13:05.576Z,15.45
2017-11-16T01:15:33.443Z,17.30
2017-11-16T01:18:01.314Z,18.80
2017-11-16T01:20:29.179Z,19.70
2017-11-16T01:22:57.045Z,18.60
2017-11-16T01:25:24.911Z,18.33
2017-11-16T01:27:52.779Z,19.20
2017-11-16T01:30:20.651Z,21.10
2017-11-16T01:32:48.519Z,15.15
2017-11-16T01:35:16.383Z,20.15
2017-11-16T01:37:44.251Z,17.35
2017-11-16T01:40:12.121Z,23.73
2017-11-16T01:42:39.988Z,18.60
2017-11-16T01:45:07.854Z,16.48
2017-11-16T01:47:35.837Z,17.55
2017-11-16T01:50:03.791Z,17.65
2017-11-16T01:52:31.663Z,17.48
2017-11-16T01:54:59.524Z,19.23
2017-11-16T01:57:27.391Z,16.58
2017-11-16T01:59:55.266Z,22.70
2017-11-16T02:02:34.903Z,18.05
2017-11-16T02:05:02.773Z,16.83
2017-11-16T02:07:30.637Z,20.60
2017-11-16T02:09:58.508Z,21.15
2017-11-16T02:12:26.371Z,19.65
2017-11-16T02:14:54.240Z,16.00
2017-11-16T02:17:22.106Z,20.73
2017-11-16T02:19:49.975Z,19.45
2017-11-16T02:22:17.842Z,19.83
2017-11-16T02:24:45.810Z,20.15
2017-11-16T02:27:13.677Z,23.50
2017-11-16T02:29:41.545Z,17.05
2017-11-16T02:32:09.417Z,16.75
2017-11-16T02:34:37.281Z,19.25
2017-11-16T02:37:05.152Z,19.70
2017-11-16T02:39:33.120Z,18.00
2017-11-16T02:42:01.086Z,19.55
2017-11-16T02:44:29.057Z,20.62
2017-11-16T02:46:57.026Z,19.95
2017-11-16T02:49:24.894Z,27.95
2017-11-16T02:51:52.864Z,23.02
2017-11-16T02:54:20.833Z,19.92
2017-11-16T02:56:48.803Z,17.73
2017-11-16T02:59:16.670Z,20.65
2017-11-16T03:01:44.538Z,21.60
2017-11-16T03:04:12.421Z,16.35
2017-11-16T03:06:40.271Z,24.83
2017-11-16T03:09:08.242Z,21.02
2017-11-16T03:11:36.109Z,16.48
2017-11-16T03:14:03.976Z,21.92
2017-11-16T03:16:31.844Z,16.87
2017-11-16T03:18:59.751Z,20.65
2017-11-16T03:21:27.578Z,15.85
2017-11-16T03:23:55.446Z,21.73
2017-11-16T03:26:23.312Z,20.33
2017-11-16T03:28:51.183Z,17.95
2017-11-16T03:31:19.049Z,19.15
2017-11-16T03:33:46.914Z,15.32
2017-11-16T03:36:14.781Z,16.87
2017-11-16T03:38:42.649Z,16.45
2017-11-16T03:41:10.516Z,17.08
2017-11-16T03:43:38.383Z,14.05
2017-11-16T03:46:06.251Z,14.00
2017-11-16T03:48:34.117Z,12.90
2017-11-16T03:51:01.986Z,14.07
2017-11-16T03:53:29.857Z,13.02
2017-11-16T03:55:57.721Z,14.60
2017-11-16T03:58:25.587Z,11.98
2017-11-16T04:00:53.455Z,11.80
2017-11-16T04:03:21.323Z,12.50
2017-11-16T04:05:49.196Z,13.80
2017-11-16T04:08:17.058Z,15.32
2017-11-16T04:10:44.924Z,14.32
2017-11-16T04:13:12.793Z,15.57
2017-11-16T04:15:40.662Z,13.43
2017-11-16T04:18:08.531Z,15.38
2017-11-16T04:20:36.394Z,11.75
2017-11-16T04:23:04.262Z,9.90
2017-11-16T04:25:32.128Z,18.83
2017-11-16T04:27:59.995Z,11.45
2017-11-16T04:30:27.864Z,13.90
2017-11-16T04:32:55.730Z,11.70
2017-11-16T04:35:23.598Z,12.13
2017-11-16T04:37:51.466Z,9.75
2017-11-16T04:40:19.331Z,13.30
2017-11-16T04:42:47.204Z,9.80
2017-11-16T04:45:15.071Z,10.77
2017-11-16T04:47:42.935Z,12.95
2017-11-16T04:50:10.806Z,11.02
2017-11-16T04:52:38.672Z,9.50
2017-11-16T04:55:06.541Z,10.30
2017-11-16T04:57:34.407Z,10.05
2017-11-16T05:00:02.272Z,7.95
2017-11-16T05:02:30.139Z,8.55
2017-11-16T05:04:58.005Z,11.05
2017-11-16T05:07:26.763Z,9.23
2017-11-16T05:09:54.665Z,10.15
2017-11-16T05:12:22.529Z,8.25
2017-11-16T05:14:50.399Z,11.18
2017-11-16T05:17:18.267Z,9.15
2017-11-16T05:19:46.132Z,10.77
2017-11-16T05:22:13.998Z,10.25
2017-11-16T05:24:41.865Z,10.65
2017-11-16T05:27:09.733Z,10.68
2017-11-16T05:29:37.600Z,13.38
2017-11-16T05:32:05.476Z,13.57
2017-11-16T05:34:33.338Z,13.43
2017-11-16T05:37:01.203Z,10.70
2017-11-16T05:39:29.070Z,11.60
2017-11-16T05:41:56.939Z,11.60
2017-11-16T05:44:24.907Z,15.40
2017-11-16T05:46:52.776Z,11.65
2017-11-16T05:49:20.641Z,11.63
2017-11-16T05:51:48.509Z,13.00
2017-11-16T05:54:16.376Z,11.35
2017-11-16T05:56:44.243Z,11.12
2017-11-16T05:59:12.111Z,11.38
2017-11-16T06:01:39.977Z,11.10
2017-11-16T06:04:07.845Z,8.55
2017-11-16T06:06:35.713Z,12.13
2017-11-16T06:09:03.684Z,10.02
2017-11-16T06:11:31.549Z,8.18
2017-11-16T06:13:59.416Z,8.43
2017-11-16T06:16:27.284Z,10.45
2017-11-16T06:18:55.152Z,14.10
2017-11-16T06:21:23.020Z,16.75
2017-11-16T06:23:50.925Z,16.52
2017-11-16T06:26:18.788Z,13.77
2017-11-16T06:28:46.656Z,17.58
2017-11-16T06:31:14.523Z,17.92
2017-11-16T06:33:42.391Z,17.25
2017-11-16T06:36:10.257Z,19.67
2017-11-16T06:38:38.125Z,15.65
2017-11-16T06:41:05.992Z,15.25
2017-11-16T06:43:33.859Z,19.48
2017-11-16T06:46:01.727Z,19.75
2017-11-16T06:48:29.593Z,18.65
2017-11-16T06:50:57.467Z,20.73
2017-11-16T06:53:25.330Z,18.90
2017-11-16T06:55:53.201Z,18.42
2017-11-16T06:58:21.065Z,21.65
2017-11-16T07:00:49.254Z,21.10
2017-11-16T07:03:17.827Z,25.02
2017-11-16T07:05:45.689Z,17.77
2017-11-16T07:08:13.558Z,24.23
2017-11-16T07:10:41.423Z,21.65
2017-11-16T07:13:09.291Z,25.48
2017-11-16T07:15:37.159Z,35.00
2017-11-16T07:18:05.026Z,28.67
2017-11-16T07:20:32.892Z,35.92
2017-11-16T07:23:00.760Z,30.70
2017-11-16T07:25:28.630Z,28.90
2017-11-16T07:27:56.494Z,30.95
2017-11-16T07:30:24.363Z,31.73
2017-11-16T07:32:52.229Z,27.52
2017-11-16T07:35:20.101Z,25.77
2017-11-16T07:37:47.963Z,27.58
2017-11-16T07:40:15.831Z,29.70
2017-11-16T07:42:43.697Z,27.65
2017-11-16T07:45:11.565Z,28.45
2017-11-16T07:47:39.535Z,35.25
2017-11-16T07:50:07.506Z,27.33
2017-11-16T07:52:35.381Z,30.40
2017-11-16T07:55:03.240Z,32.67
2017-11-16T07:57:31.107Z,30.75
2017-11-16T07:59:58.979Z,30.40
2017-11-16T08:02:26.842Z,32.40
2017-11-16T08:04:54.709Z,24.70
2017-11-16T08:07:22.589Z,30.12
2017-11-16T08:09:50.445Z,31.73
2017-11-16T08:12:18.311Z,33.95
2017-11-16T08:14:46.184Z,30.75
2017-11-16T08:17:14.048Z,32.28
2017-11-16T08:19:41.843Z,38.15
2017-11-16T08:22:10.496Z,29.85
2017-11-16T08:24:38.371Z,33.53
2017-11-16T08:27:06.231Z,34.05
2017-11-16T08:29:34.098Z,35.88
2017-11-16T08:32:01.966Z,34.00
2017-11-16T08:34:29.833Z,31.52
2017-11-16T08:36:57.701Z,32.63
2017-11-16T08:39:25.568Z,28.27
2017-11-16T08:41:53.435Z,35.38
2017-11-16T08:44:21.303Z,26.25
2017-11-16T08:46:49.273Z,31.10
2017-11-16T08:49:17.243Z,32.25
2017-11-16T08:51:45.226Z,28.20
2017-11-16T08:54:13.183Z,28.08
2017-11-16T08:56:41.050Z,26.45
2017-11-16T08:59:08.916Z,25.80
2017-11-16T09:01:36.784Z,30.23
2017-11-16T09:04:04.651Z,27.42
2017-11-16T09:06:32.518Z,21.80
2017-11-16T09:09:00.385Z,20.00
2017-11-16T09:11:28.253Z,22.73
2017-11-16T09:13:56.223Z,22.10
2017-11-16T09:16:24.089Z,30.00
2017-11-16T09:18:51.957Z,29.20
2017-11-16T09:21:19.927Z,27.62
2017-11-16T09:23:47.896Z,23.92
2017-11-16T09:26:15.866Z,21.92
2017-11-16T09:28:43.771Z,23.87
2017-11-16T09:31:12.420Z,22.35
2017-11-16T09:33:40.287Z,27.33
2017-11-16T09:36:08.155Z,24.50
2017-11-16T09:38:36.022Z,22.62
2017-11-16T09:41:03.896Z,24.75
2017-11-16T09:43:31.758Z,24.48
2017-11-16T09:45:59.624Z,20.73
2017-11-16T09:48:27.490Z,22.30
2017-11-16T09:50:55.358Z,21.50
2017-11-16T09:53:23.226Z,23.08
2017-11-16T09:55:51.099Z,24.15
2017-11-16T09:58:19.063Z,21.33
2017-11-16T10:00:46.931Z,19.58
2017-11-16T10:03:14.801Z,20.88
2017-11-16T10:05:42.667Z,20.00
2017-11-16T10:08:10.551Z,20.30
2017-11-16T10:10:39.226Z,16.35
2017-11-16T10:13:07.089Z,23.08
2017-11-16T10:15:34.957Z,20.27
2017-11-16T10:18:02.825Z,19.83
2017-11-16T10:20:30.698Z,22.25
2017-11-16T10:22:58.559Z,22.92
2017-11-16T10:25:26.429Z,21.00
2017-11-16T10:27:54.291Z,18.60
2017-11-16T10:30:22.164Z,17.60
2017-11-16T10:32:50.024Z,21.50
2017-11-16T10:35:17.893Z,19.70
2017-11-16T10:37:45.759Z,23.08
2017-11-16T10:40:13.625Z,20.48
2017-11-16T10:42:41.499Z,19.90
2017-11-16T10:45:09.368Z,22.05
2017-11-16T10:47:37.331Z,18.80
2017-11-16T10:50:05.194Z,17.62
2017-11-16T10:52:33.066Z,22.62
2017-11-16T10:55:00.939Z,17.42
2017-11-16T10:57:28.799Z,18.83
2017-11-16T10:59:56.676Z,14.75
2017-11-16T11:02:24.534Z,20.25
2017-11-16T11:04:52.401Z,17.90
2017-11-16T11:07:20.269Z,17.17
2017-11-16T11:09:48.137Z,15.50
2017-11-16T11:12:16.004Z,18.65
2017-11-16T11:14:43.870Z,18.25
2017-11-16T11:17:11.754Z,19.00
2017-11-16T11:19:40.424Z,20.23
2017-11-16T11:22:08.291Z,20.58
2017-11-16T11:24:36.160Z,17.17
2017-11-16T11:27:04.026Z,18.60
2017-11-16T11:29:31.895Z,18.60
2017-11-16T11:31:59.762Z,19.30
2017-11-16T11:34:27.629Z,15.50
2017-11-16T11:36:55.496Z,18.80
2017-11-16T11:39:23.363Z,15.25
2017-11-16T11:41:51.230Z,22.98
2017-11-16T11:44:19.097Z,15.48
2017-11-16T11:46:46.899Z,18.92
2017-11-16T11:49:15.549Z,17.33
2017-11-16T11:51:43.418Z,16.58
2017-11-16T11:54:11.284Z,16.27
2017-11-16T11:56:39.151Z,20.58
2017-11-16T11:59:07.018Z,22.70
2017-11-16T12:01:34.886Z,25.65
2017-11-16T12:04:02.860Z,24.77
2017-11-16T12:06:30.725Z,23.10
2017-11-16T12:08:58.591Z,26.10
2017-11-16T12:11:26.457Z,27.73
2017-11-16T12:13:54.327Z,22.95
2017-11-16T12:16:22.192Z,24.17
2017-11-16T12:18:50.058Z,21.85
2017-11-16T12:21:17.927Z,26.15
2017-11-16T12:23:45.795Z,21.60
2017-11-16T12:26:13.665Z,23.00
2017-11-16T12:28:41.532Z,21.48
2017-11-16T12:31:09.497Z,21.45
2017-11-16T12:33:37.467Z,25.88
2017-11-16T12:36:05.438Z,21.95
2017-11-16T12:38:33.407Z,28.62
2017-11-16T12:41:01.275Z,27.58
2017-11-16T12:43:29.141Z,27.40
2017-11-16T12:45:57.112Z,26.00
2017-11-16T12:48:24.979Z,28.50
2017-11-16T12:50:52.948Z,28.73
2017-11-16T12:53:20.817Z,24.65
2017-11-16T12:55:48.682Z,32.95
2017-11-16T12:58:16.550Z,25.95
2017-11-16T13:00:44.421Z,28.52
2017-11-16T13:03:12.286Z,29.12
2017-11-16T13:05:40.153Z,27.02
2017-11-16T13:08:08.020Z,25.15
2017-11-16T13:10:35.888Z,23.23
2017-11-16T13:13:03.758Z,26.37
2017-11-16T13:15:31.622Z,27.83
2017-11-16T13:17:59.494Z,25.67
2017-11-16T13:20:27.358Z,30.90
2017-11-16T13:22:55.231Z,28.48
2017-11-16T13:25:23.096Z,28.83
2017-11-16T13:27:50.965Z,26.17
2017-11-16T13:30:18.832Z,37.53
2017-11-16T13:32:46.698Z,29.35
2017-11-16T13:35:14.566Z,54.05
2017-11-16T13:37:42.430Z,36.00
2017-11-16T13:40:10.297Z,33.35
2017-11-16T13:42:38.162Z,26.77
2017-11-16T13:45:06.029Z,32.92
2017-11-16T13:47:33.897Z,33.67
2017-11-16T13:50:01.764Z,34.33
2017-11-16T13:52:29.631Z,34.25
2017-11-16T13:54:57.498Z,32.75
2017-11-16T13:57:25.365Z,30.83
2017-11-16T13:59:53.234Z,43.15
2017-11-16T14:02:21.105Z,40.00
2017-11-16T14:04:48.967Z,44.60
2017-11-16T14:07:16.834Z,44.58
2017-11-16T14:09:44.703Z,41.80
2017-11-16T14:12:12.568Z,44.60
2017-11-16T14:14:40.435Z,39.58
2017-11-16T14:17:08.304Z,47.28
2017-11-16T14:22:10.187Z,49.00
2017-11-16T14:24:38.052Z,52.75
2017-11-16T14:27:05.919Z,58.78
2017-11-16T14:29:33.785Z,57.33
2017-11-16T14:32:01.652Z,58.65
2017-11-16T14:34:29.519Z,53.35
2017-11-16T14:36:57.386Z,62.13
2017-11-16T14:39:25.261Z,66.53
2017-11-16T14:41:53.123Z,52.70
2017-11-16T14:44:20.989Z,60.75
2017-11-16T14:46:48.855Z,72.82
2017-11-16T14:49:16.736Z,62.15
2017-11-16T14:51:44.589Z,57.22
2017-11-16T14:54:12.459Z,68.18
2017-11-16T14:56:40.325Z,54.80
2017-11-16T14:59:08.192Z,67.82
2017-11-16T15:01:36.059Z,65.37
2017-11-16T15:04:03.856Z,60.55
2017-11-16T15:06:32.440Z,64.12
2017-11-16T15:09:01.094Z,61.63
2017-11-16T15:11:28.963Z,59.00
2017-11-16T15:13:56.830Z,56.15
2017-11-16T15:16:24.696Z,63.00
2017-11-16T15:18:52.562Z,59.28
2017-11-16T15:21:20.437Z,61.60
2017-11-16T15:23:48.298Z,67.37
2017-11-16T15:26:16.165Z,83.15
2017-11-16T15:28:44.036Z,61.20
2017-11-16T15:31:11.901Z,74.55
2017-11-16T15:33:39.770Z,73.55
2017-11-16T15:36:07.634Z,69.70
2017-11-16T15:38:35.502Z,70.37
2017-11-16T15:41:03.368Z,70.18
2017-11-16T15:43:31.237Z,69.87
2017-11-16T15:45:59.104Z,73.75
2017-11-16T15:48:26.902Z,62.38
2017-11-16T15:50:55.560Z,67.45
2017-11-16T15:53:23.423Z,64.47
2017-11-16T15:55:51.290Z,72.78
2017-11-16T15:58:19.177Z,77.90
2017-11-16T16:00:47.024Z,64.60
2017-11-16T16:03:14.893Z,65.05
2017-11-16T16:05:42.760Z,73.43
2017-11-16T16:08:10.626Z,76.53
2017-11-16T16:10:38.494Z,68.78
2017-11-16T16:13:06.361Z,80.25
2017-11-16T16:15:34.228Z,70.47
2017-11-16T16:18:02.096Z,67.20
2017-11-16T16:20:29.962Z,66.28
2017-11-16T16:22:57.831Z,72.22
2017-11-16T16:25:25.698Z,69.50
2017-11-16T16:27:53.566Z,80.03
2017-11-16T16:30:21.433Z,73.40
2017-11-16T16:32:49.305Z,62.33
2017-11-16T16:35:17.171Z,69.03
2017-11-16T16:37:45.037Z,78.18
2017-11-16T16:40:12.903Z,78.32
2017-11-16T16:42:40.775Z,71.20
2017-11-16T16:45:08.642Z,70.90
2017-11-16T16:47:36.509Z,83.15
2017-11-16T16:50:04.374Z,72.62
2017-11-16T16:52:32.239Z,77.10
2017-11-16T16:55:00.925Z,67.20
2017-11-16T16:57:28.791Z,83.07
2017-11-16T16:59:56.659Z,79.90
2017-11-16T17:02:24.563Z,90.82
2017-11-16T17:04:53.213Z,91.65
2017-11-16T17:07:21.080Z,81.53
2017-11-16T17:09:48.947Z,88.85
2017-11-16T17:12:16.817Z,73.15
2017-11-16T17:14:44.682Z,74.55
2017-11-16T17:17:12.550Z,96.78
2017-11-16T17:19:40.417Z,81.82
2017-11-16T17:22:08.284Z,80.40
2017-11-16T17:24:36.156Z,97.90
2017-11-16T17:27:04.018Z,82.43
2017-11-16T17:29:31.988Z,86.90
2017-11-16T17:31:59.855Z,77.25
2017-11-16T17:34:27.743Z,82.68
2017-11-16T17:36:55.594Z,76.12
2017-11-16T17:39:23.457Z,75.57
2017-11-16T17:41:51.325Z,65.82
2017-11-16T17:44:19.192Z,65.35
2017-11-16T17:46:47.066Z,71.85
2017-11-16T17:49:14.926Z,66.75
2017-11-16T17:51:42.795Z,72.43
2017-11-16T17:54:10.661Z,62.92
2017-11-16T17:56:38.530Z,64.25
2017-11-16T17:59:06.397Z,65.45
2017-11-16T18:01:34.263Z,61.53
2017-11-16T18:04:02.130Z,74.47
2017-11-16T18:06:29.998Z,67.75
2017-11-16T18:08:57.865Z,70.90
2017-11-16T18:11:25.732Z,66.40
2017-11-16T18:13:53.599Z,64.82
2017-11-16T18:16:21.467Z,57.42
2017-11-16T18:18:49.335Z,60.75
2017-11-16T18:21:17.204Z,58.83
2017-11-16T18:23:45.069Z,59.78
2017-11-16T18:26:12.936Z,61.53
2017-11-16T18:28:40.802Z,57.42
2017-11-16T18:31:08.670Z,57.10
2017-11-16T18:33:36.538Z,46.90
2017-11-16T18:36:04.406Z,53.87
2017-11-16T18:38:32.275Z,51.28
2017-11-16T18:41:00.138Z,56.90
2017-11-16T18:43:28.009Z,59.58
2017-11-16T18:45:55.874Z,62.28
2017-11-16T18:48:23.740Z,59.83
2017-11-16T18:50:51.609Z,64.05
2017-11-16T18:53:19.475Z,58.33
2017-11-16T18:55:47.343Z,63.58
2017-11-16T18:58:15.221Z,66.50
2017-11-16T19:00:43.078Z,55.92
2017-11-16T19:03:10.949Z,60.10
2017-11-16T19:05:38.813Z,54.50
2017-11-16T19:08:06.680Z,57.33
2017-11-16T19:10:34.547Z,61.22
2017-11-16T19:13:02.418Z,58.83
2017-11-16T19:15:30.282Z,47.70
2017-11-16T19:17:58.150Z,49.78
2017-11-16T19:20:26.016Z,58.25
2017-11-16T19:25:27.791Z,47.67
2017-11-16T19:27:55.661Z,48.53
2017-11-16T19:30:23.526Z,47.53
2017-11-16T19:32:51.402Z,52.60
2017-11-16T19:35:20.081Z,50.40
2017-11-16T19:37:47.949Z,48.55
2017-11-16T19:40:15.815Z,43.55
2017-11-16T19:42:43.684Z,49.63
2017-11-16T19:45:11.551Z,42.50
2017-11-16T19:47:39.417Z,43.53
2017-11-16T19:50:07.289Z,42.88
2017-11-16T19:52:35.155Z,46.03
2017-11-16T19:55:03.024Z,47.00
2017-11-16T19:57:30.888Z,41.50
2017-11-16T19:59:58.759Z,44.80
2017-11-16T20:02:26.559Z,37.00
2017-11-16T20:04:55.210Z,37.38
2017-11-16T20:07:23.077Z,44.15
2017-11-16T20:09:50.941Z,49.33
2017-11-16T20:12:18.807Z,38.80
2017-11-16T20:14:46.677Z,42.47
2017-11-16T20:17:14.542Z,48.08
2017-11-16T20:19:42.409Z,44.13
2017-11-16T20:22:10.276Z,45.88
2017-11-16T20:24:38.143Z,47.05
2017-11-16T20:27:06.012Z,38.42
2017-11-16T20:29:33.982Z,40.97
2017-11-16T20:32:01.852Z,46.47
2017-11-16T20:34:29.716Z,44.65
2017-11-16T20:37:15.402Z,49.50
2017-11-16T20:39:59.857Z,41.78
2017-11-16T20:42:33.187Z,41.17
2017-11-16T20:45:17.504Z,48.13
2017-11-16T20:47:46.192Z,39.88
2017-11-16T20:50:21.841Z,41.50
2017-11-16T20:53:01.588Z,47.70
2017-11-16T20:55:40.310Z,40.50
2017-11-16T20:58:08.179Z,44.50
2017-11-16T21:00:36.147Z,39.40
2017-11-16T21:03:04.014Z,46.63
2017-11-16T21:05:31.884Z,46.45
2017-11-16T21:07:59.748Z,50.80
2017-11-16T21:10:28.707Z,41.88
2017-11-16T21:12:56.712Z,44.28
2017-11-16T21:15:24.582Z,43.50
2017-11-16T21:17:53.979Z,44.88
2017-11-16T21:20:22.670Z,48.42
2017-11-16T21:22:50.537Z,50.38
2017-11-16T21:25:18.434Z,46.37
2017-11-16T21:27:47.028Z,44.83
2017-11-16T21:30:15.673Z,57.20
2017-11-16T21:32:43.544Z,56.85
2017-11-16T21:35:11.411Z,52.92
2017-11-16T21:37:39.278Z,45.35
2017-11-16T21:40:07.151Z,58.22
2017-11-16T21:42:35.012Z,49.63
2017-11-16T21:45:02.881Z,49.72
2017-11-16T21:47:30.850Z,46.83
2017-11-16T21:50:00.151Z,48.63
2017-11-16T21:52:28.016Z,46.95
2017-11-16T21:54:55.883Z,50.38
2017-11-16T21:57:23.750Z,52.65
2017-11-16T21:59:53.718Z,42.10
2017-11-16T22:02:29.501Z,47.97
2017-11-16T22:04:59.581Z,48.55
2017-11-16T22:07:28.327Z,45.00
2017-11-16T22:09:56.198Z,49.33
2017-11-16T22:12:24.062Z,50.90
2017-11-16T22:14:52.928Z,44.05
2017-11-16T22:17:20.822Z,51.95
2017-11-16T22:19:48.689Z,45.10
2017-11-16T22:22:16.559Z,50.15
2017-11-16T22:24:46.143Z,45.30
2017-11-16T22:27:14.135Z,46.58
2017-11-16T22:29:44.251Z,42.65
2017-11-16T22:35:05.692Z,49.47
2017-11-16T22:37:33.558Z,46.58
2017-11-16T22:40:01.363Z,49.97
2017-11-16T22:42:30.009Z,49.05
2017-11-16T22:44:57.877Z,49.67
2017-11-16T22:47:25.744Z,47.83
2017-11-16T22:49:53.612Z,53.15
2017-11-16T22:52:21.479Z,52.58
2017-11-16T22:54:49.350Z,44.95
2017-11-16T22:57:17.214Z,44.22
2017-11-16T22:59:45.017Z,49.65
2017-11-16T23:02:13.665Z,45.88
2017-11-16T23:04:41.532Z,49.95
2017-11-16T23:07:09.403Z,40.33
2017-11-16T23:09:37.269Z,43.75
2017-11-16T23:12:05.136Z,41.28
2017-11-16T23:14:33.003Z,47.40
2017-11-16T23:17:00.874Z,47.15
2017-11-16T23:19:28.742Z,40.75
2017-11-16T23:21:56.605Z,42.42
2017-11-16T23:24:24.473Z,43.03
2017-11-16T23:26:53.261Z,49.35
2017-11-16T23:29:21.130Z,44.40
2017-11-16T23:31:48.995Z,44.92
2017-11-16T23:34:16.863Z,48.00
2017-11-16T23:36:44.728Z,53.95
2017-11-16T23:39:12.597Z,48.80
2017-11-16T23:41:40.464Z,54.63
2017-11-16T23:44:08.343Z,52.25
2017-11-16T23:46:36.916Z,51.78
2017-11-16T23:49:04.783Z,48.83
2017-11-16T23:51:32.651Z,52.13
2017-11-16T23:54:00.518Z,52.05
2017-11-16T23:56:28.384Z,47.00
2017-11-16T23:58:56.251Z,50.03
